createdAt,value
2023-05-24T00:00:12.984Z,98735.40
2023-05-24T00:03:01.092Z,98735.40
2023-05-24T00:05:31.306Z,98736.80
2023-05-24T00:07:59.964Z,98730.80
2023-05-24T00:10:27.648Z,98727.60
2023-05-24T00:12:55.512Z,98732.20
2023-05-24T00:15:23.382Z,98735.60
2023-05-24T00:17:51.773Z,98737.60
2023-05-24T00:20:20.952Z,98736.60
2023-05-24T00:22:49.309Z,98741.40
2023-05-24T00:25:17.137Z,98737.00
2023-05-24T00:27:44.835Z,98735.00
2023-05-24T00:30:12.838Z,98738.40
2023-05-24T00:32:40.561Z,98733.80
2023-05-24T00:35:08.566Z,98735.20
2023-05-24T00:37:37.447Z,98737.80
2023-05-24T00:40:06.544Z,98733.80
2023-05-24T00:42:34.273Z,98737.80
2023-05-24T00:45:02.047Z,98741.80
2023-05-24T00:47:29.928Z,98736.60
2023-05-24T00:49:57.799Z,98735.00
2023-05-24T00:52:25.658Z,98736.00
2023-05-24T00:54:53.401Z,98743.00
2023-05-24T00:57:21.771Z,98748.80
2023-05-24T00:59:49.808Z,98750.40
2023-05-24T01:02:18.554Z,98753.20
2023-05-24T01:04:49.120Z,98751.40
2023-05-24T01:07:37.984Z,98756.00
2023-05-24T01:10:24.171Z,98749.80
2023-05-24T01:13:46.043Z,98745.60
2023-05-24T01:16:22.711Z,98748.00
2023-05-24T01:18:57.599Z,98750.20
2023-05-24T01:21:48.403Z,98747.60
2023-05-24T01:24:53.977Z,98752.00
2023-05-24T01:27:24.430Z,98755.00
2023-05-24T01:29:56.000Z,98759.20
2023-05-24T01:32:24.720Z,98759.80
2023-05-24T01:34:52.473Z,98759.60
2023-05-24T01:37:20.194Z,98762.80
2023-05-24T01:39:49.634Z,98761.00
2023-05-24T01:42:46.513Z,98760.80
2023-05-24T01:45:38.139Z,98765.40
2023-05-24T01:48:31.951Z,98768.00
2023-05-24T01:51:01.330Z,98767.80
2023-05-24T01:53:50.843Z,98772.60
2023-05-24T01:56:20.750Z,98773.80
2023-05-24T01:58:52.135Z,98774.60
2023-05-24T02:01:20.023Z,98771.20
2023-05-24T02:03:47.852Z,98773.80
2023-05-24T02:06:15.564Z,98768.80
2023-05-24T02:08:43.297Z,98776.80
2023-05-24T02:11:10.960Z,98776.40
2023-05-24T02:13:38.645Z,98779.40
2023-05-24T02:16:06.610Z,98771.00
2023-05-24T02:18:35.158Z,98775.60
2023-05-24T02:21:03.854Z,98774.20
2023-05-24T02:23:31.793Z,98776.00
2023-05-24T02:25:59.524Z,98777.60
2023-05-24T02:28:27.268Z,98775.00
2023-05-24T02:30:54.971Z,98776.00
2023-05-24T02:33:25.605Z,98784.80
2023-05-24T02:35:53.280Z,98784.20
2023-05-24T02:38:21.214Z,98785.20
2023-05-24T02:40:48.930Z,98778.20
2023-05-24T02:43:16.606Z,98784.40
2023-05-24T02:45:45.271Z,98782.80
2023-05-24T02:48:12.987Z,98785.20
2023-05-24T02:50:40.861Z,98787.60
2023-05-24T02:53:09.017Z,98784.80
2023-05-24T02:55:37.430Z,98788.60
2023-05-24T02:58:05.234Z,98792.60
2023-05-24T03:00:32.902Z,98792.60
2023-05-24T03:03:03.200Z,98798.20
2023-05-24T03:05:31.045Z,98800.40
2023-05-24T03:07:58.689Z,98799.40
2023-05-24T03:10:26.456Z,98801.20
2023-05-24T03:12:54.182Z,98804.60
2023-05-24T03:15:21.868Z,98809.40
2023-05-24T03:17:49.757Z,98807.40
2023-05-24T03:20:17.721Z,98809.60
2023-05-24T03:22:45.713Z,98807.20
2023-05-24T03:25:13.395Z,98808.80
2023-05-24T03:27:41.099Z,98816.00
2023-05-24T03:30:09.666Z,98813.60
2023-05-24T03:32:37.396Z,98815.80
2023-05-24T03:35:05.459Z,98815.40
2023-05-24T03:37:33.163Z,98814.00
2023-05-24T03:40:00.911Z,98812.00
2023-05-24T03:42:28.634Z,98816.00
2023-05-24T03:44:56.359Z,98821.60
2023-05-24T03:47:24.014Z,98828.20
2023-05-24T03:49:51.746Z,98822.80
2023-05-24T03:52:19.430Z,98823.00
2023-05-24T03:54:47.497Z,98819.80
2023-05-24T03:57:15.743Z,98824.20
2023-05-24T03:59:43.740Z,98826.00
2023-05-24T04:02:11.430Z,98825.00
2023-05-24T04:04:39.369Z,98828.60
2023-05-24T04:07:08.041Z,98829.20
2023-05-24T04:09:35.800Z,98825.20
2023-05-24T04:12:03.853Z,98831.60
2023-05-24T04:14:31.554Z,98832.60
2023-05-24T04:16:59.254Z,98841.00
2023-05-24T04:19:26.964Z,98835.40
2023-05-24T04:21:54.689Z,98839.20
2023-05-24T04:24:22.447Z,98841.80
2023-05-24T04:26:50.321Z,98847.20
2023-05-24T04:29:19.006Z,98855.40
2023-05-24T04:31:49.009Z,98853.60
2023-05-24T04:34:16.999Z,98856.40
2023-05-24T04:36:44.677Z,98856.00
2023-05-24T04:39:12.633Z,98863.80
2023-05-24T04:41:40.706Z,98871.20
2023-05-24T04:44:08.314Z,98875.80
2023-05-24T04:46:36.335Z,98877.20
2023-05-24T04:49:05.652Z,98878.80
2023-05-24T04:51:33.750Z,98879.80
2023-05-24T04:54:03.750Z,98885.60
2023-05-24T04:56:31.687Z,98885.00
2023-05-24T04:58:59.660Z,98887.00
2023-05-24T05:01:27.766Z,98886.00
2023-05-24T05:03:55.620Z,98889.60
2023-05-24T05:06:23.341Z,98900.20
2023-05-24T05:08:52.123Z,98899.00
2023-05-24T05:11:20.639Z,98903.80
2023-05-24T05:13:48.291Z,98905.00
2023-05-24T05:16:15.990Z,98911.40
2023-05-24T05:18:43.641Z,98907.60
2023-05-24T05:21:11.734Z,98915.40
2023-05-24T05:23:39.870Z,98917.40
2023-05-24T05:26:07.517Z,98915.80
2023-05-24T05:28:35.252Z,98922.60
2023-05-24T05:31:03.604Z,98928.40
2023-05-24T05:33:32.789Z,98934.80
2023-05-24T05:36:00.561Z,98940.40
2023-05-24T05:38:28.264Z,98945.20
2023-05-24T05:40:55.973Z,98952.20
2023-05-24T05:43:25.106Z,98956.20
2023-05-24T05:45:52.730Z,98960.60
2023-05-24T05:48:20.519Z,98962.20
2023-05-24T05:50:48.296Z,98968.60
2023-05-24T05:53:17.026Z,98974.00
2023-05-24T05:55:44.695Z,98973.40
2023-05-24T05:58:12.559Z,98977.40
2023-05-24T06:00:40.943Z,98981.20
2023-05-24T06:03:08.967Z,98983.40
2023-05-24T06:05:36.791Z,98989.20
2023-05-24T06:08:04.897Z,98995.60
2023-05-24T06:10:32.607Z,99003.60
2023-05-24T06:13:03.852Z,98999.60
2023-05-24T06:15:33.358Z,99008.20
2023-05-24T06:18:02.315Z,99000.00
2023-05-24T06:20:30.226Z,99005.20
2023-05-24T06:22:59.032Z,99007.80
2023-05-24T06:25:30.767Z,99010.60
2023-05-24T06:27:58.758Z,99009.80
2023-05-24T06:30:26.649Z,99015.60
2023-05-24T06:32:54.544Z,99019.40
2023-05-24T06:35:22.642Z,99024.40
2023-05-24T06:37:50.754Z,99030.40
2023-05-24T06:40:18.512Z,99034.80
2023-05-24T06:42:46.244Z,99037.60
2023-05-24T06:45:14.440Z,99043.20
2023-05-24T06:47:42.204Z,99050.80
2023-05-24T06:50:10.093Z,99050.80
2023-05-24T06:52:37.774Z,99052.40
2023-05-24T06:55:06.152Z,99056.20
2023-05-24T06:57:33.859Z,99058.40
2023-05-24T07:00:01.661Z,99062.60
2023-05-24T07:02:29.454Z,99059.40
2023-05-24T07:04:57.269Z,99057.80
2023-05-24T07:07:25.701Z,99063.40
2023-05-24T07:09:53.680Z,99063.60
2023-05-24T07:12:21.509Z,99067.40
2023-05-24T07:14:49.266Z,99069.20
2023-05-24T07:17:17.050Z,99068.80
2023-05-24T07:19:45.453Z,99072.40
2023-05-24T07:22:13.401Z,99079.20
2023-05-24T07:24:41.137Z,99079.40
2023-05-24T07:27:09.591Z,99086.80
2023-05-24T07:29:37.681Z,99091.20
2023-05-24T07:32:05.848Z,99090.80
2023-05-24T07:34:34.725Z,99096.00
2023-05-24T07:37:02.440Z,99095.60
2023-05-24T07:39:30.713Z,99105.00
2023-05-24T07:41:58.524Z,99108.60
2023-05-24T07:44:26.289Z,99111.00
2023-05-24T07:46:55.796Z,99113.00
2023-05-24T07:49:24.237Z,99114.40
2023-05-24T07:51:52.007Z,99117.00
2023-05-24T07:54:20.405Z,99116.80
2023-05-24T07:56:49.209Z,99117.00
2023-05-24T07:59:16.903Z,99116.20
2023-05-24T08:01:44.620Z,99122.60
2023-05-24T08:04:12.385Z,99121.20
2023-05-24T08:06:40.133Z,99131.20
2023-05-24T08:09:09.614Z,99133.20
2023-05-24T08:11:37.527Z,99133.20
2023-05-24T08:14:05.214Z,99136.00
2023-05-24T08:16:32.993Z,99138.80
2023-05-24T08:19:00.706Z,99146.00
2023-05-24T08:21:29.303Z,99146.60
2023-05-24T08:23:57.226Z,99148.20
2023-05-24T08:26:24.872Z,99153.40
2023-05-24T08:28:52.911Z,99151.20
2023-05-24T08:31:22.143Z,99154.60
2023-05-24T08:33:51.365Z,99147.60
2023-05-24T08:36:19.498Z,99145.20
2023-05-24T08:38:47.298Z,99158.20
2023-05-24T08:41:15.057Z,99162.40
2023-05-24T08:43:46.316Z,99167.40
2023-05-24T08:46:18.444Z,99172.80
2023-05-24T08:48:48.369Z,99177.80
2023-05-24T08:51:17.750Z,99184.00
2023-05-24T08:53:49.210Z,99186.00
2023-05-24T08:56:18.818Z,99190.20
2023-05-24T08:58:47.623Z,99186.60
2023-05-24T09:01:17.559Z,99191.40
2023-05-24T09:03:51.092Z,99192.40
2023-05-24T09:06:19.616Z,99193.40
2023-05-24T09:08:50.330Z,99198.00
2023-05-24T09:11:19.904Z,99194.80
2023-05-24T09:13:48.732Z,99200.80
2023-05-24T09:16:17.005Z,99197.40
2023-05-24T09:18:44.721Z,99198.20
2023-05-24T09:21:13.419Z,99203.00
2023-05-24T09:23:42.090Z,99214.40
2023-05-24T09:26:11.416Z,99214.40
2023-05-24T09:28:41.716Z,99215.40
2023-05-24T09:31:09.460Z,99222.40
2023-05-24T09:33:39.103Z,99222.20
2023-05-24T09:36:07.454Z,99223.80
2023-05-24T09:38:36.858Z,99227.00
2023-05-24T09:41:08.898Z,99231.60
2023-05-24T09:43:49.838Z,99226.20
2023-05-24T09:46:20.388Z,99221.00
2023-05-24T09:49:04.057Z,99228.20
2023-05-24T09:51:32.491Z,99233.80
2023-05-24T09:54:04.468Z,99236.40
2023-05-24T09:56:35.834Z,99239.00
2023-05-24T09:59:08.450Z,99239.60
2023-05-24T10:01:36.556Z,99243.80
2023-05-24T10:04:09.348Z,99237.20
2023-05-24T10:06:43.111Z,99230.00
2023-05-24T10:09:14.129Z,99229.40
2023-05-24T10:11:42.346Z,99229.40
2023-05-24T10:14:10.168Z,99234.20
2023-05-24T10:16:38.504Z,99240.00
2023-05-24T10:19:07.309Z,99241.40
2023-05-24T10:21:42.714Z,99244.60
2023-05-24T10:24:12.420Z,99244.40
2023-05-24T10:26:42.557Z,99248.60
2023-05-24T10:29:55.202Z,99249.20
2023-05-24T10:32:25.296Z,99251.20
2023-05-24T10:34:54.217Z,99251.80
2023-05-24T10:37:25.150Z,99257.80
2023-05-24T10:39:53.801Z,99260.60
2023-05-24T10:42:21.714Z,99261.00
2023-05-24T10:44:49.433Z,99259.20
2023-05-24T10:47:20.797Z,99265.20
2023-05-24T10:49:57.672Z,99266.80
2023-05-24T10:52:36.481Z,99270.60
2023-05-24T10:55:09.534Z,99271.00
2023-05-24T10:57:39.595Z,99272.60
2023-05-24T11:00:34.605Z,99269.80
2023-05-24T11:03:09.403Z,99270.40
2023-05-24T11:06:03.920Z,99269.00
2023-05-24T11:08:33.726Z,99272.40
2023-05-24T11:13:48.414Z,99267.20
2023-05-24T11:16:39.586Z,99263.20
2023-05-24T11:19:19.756Z,99266.00
2023-05-24T11:21:50.617Z,99265.20
2023-05-24T11:24:20.636Z,99265.80
2023-05-24T11:26:50.112Z,99266.40
2023-05-24T11:29:21.211Z,99272.00
2023-05-24T11:31:58.125Z,99269.00
2023-05-24T11:34:27.470Z,99263.20
2023-05-24T11:36:55.743Z,99261.80
2023-05-24T11:39:23.849Z,99259.60
2023-05-24T11:41:54.379Z,99256.40
2023-05-24T11:44:22.491Z,99253.60
2023-05-24T11:46:56.941Z,99251.60
2023-05-24T11:49:24.999Z,99249.20
2023-05-24T11:51:57.173Z,99247.00
2023-05-24T11:54:27.363Z,99248.80
2023-05-24T11:56:56.177Z,99252.80
2023-05-24T11:59:28.403Z,99252.20
2023-05-24T12:02:02.661Z,99254.00
2023-05-24T12:04:33.155Z,99248.00
2023-05-24T12:07:01.983Z,99247.80
2023-05-24T12:09:30.229Z,99239.60
2023-05-24T12:11:58.529Z,99247.80
2023-05-24T12:14:34.615Z,99241.40
2023-05-24T12:17:02.550Z,99240.20
2023-05-24T12:19:37.123Z,99248.40
2023-05-24T12:22:07.537Z,99250.80
2023-05-24T12:24:38.026Z,99251.40
2023-05-24T12:27:10.209Z,99252.00
2023-05-24T12:29:42.534Z,99258.00
2023-05-24T12:32:15.270Z,99256.20
2023-05-24T12:34:45.208Z,99257.60
2023-05-24T12:37:15.661Z,99253.80
2023-05-24T12:39:44.709Z,99258.40
2023-05-24T12:42:13.976Z,99257.00
2023-05-24T12:44:42.470Z,99259.80
2023-05-24T12:47:10.735Z,99262.60
2023-05-24T12:49:38.917Z,99259.80
2023-05-24T12:52:07.145Z,99267.60
2023-05-24T12:54:35.255Z,99259.80
2023-05-24T12:57:03.678Z,99259.40
2023-05-24T12:59:31.768Z,99263.20
2023-05-24T13:01:59.888Z,99259.80
2023-05-24T13:04:28.239Z,99258.20
2023-05-24T13:06:56.216Z,99253.40
2023-05-24T13:09:25.949Z,99263.60
2023-05-24T13:11:55.850Z,99262.60
2023-05-24T13:14:23.907Z,99266.00
2023-05-24T13:16:51.890Z,99267.00
2023-05-24T13:19:19.907Z,99267.20
2023-05-24T13:21:47.679Z,99263.60
2023-05-24T13:24:16.566Z,99263.80
2023-05-24T13:26:45.683Z,99259.80
2023-05-24T13:31:45.347Z,99257.20
2023-05-24T13:34:13.512Z,99267.20
2023-05-24T13:36:43.690Z,99263.60
2023-05-24T13:39:16.152Z,99265.60
2023-05-24T13:41:45.185Z,99266.80
2023-05-24T13:44:15.604Z,99268.80
2023-05-24T13:46:44.340Z,99271.00
2023-05-24T13:49:12.345Z,99273.60
2023-05-24T13:51:40.696Z,99277.60
2023-05-24T13:54:08.660Z,99278.60
2023-05-24T13:56:36.858Z,99276.80
2023-05-24T13:59:06.655Z,99272.60
2023-05-24T14:01:37.130Z,99273.40
2023-05-24T14:04:06.225Z,99273.40
2023-05-24T14:06:37.649Z,99272.40
2023-05-24T14:09:09.541Z,99276.00
2023-05-24T14:11:37.427Z,99266.60
2023-05-24T14:16:37.281Z,99266.20
2023-05-24T14:19:05.698Z,99267.80
2023-05-24T14:21:34.039Z,99265.80
2023-05-24T14:24:02.418Z,99267.40
2023-05-24T14:26:33.645Z,99263.20
2023-05-24T14:29:02.113Z,99267.40
2023-05-24T14:31:29.906Z,99269.00
2023-05-24T14:33:57.792Z,99272.00
2023-05-24T14:36:26.108Z,99273.00
2023-05-24T14:38:54.039Z,99271.00
2023-05-24T14:41:22.801Z,99278.40
2023-05-24T14:43:51.168Z,99271.00
2023-05-24T14:46:19.057Z,99268.40
2023-05-24T14:48:47.088Z,99268.40
2023-05-24T14:51:15.710Z,99269.40
2023-05-24T14:53:44.239Z,99264.80
2023-05-24T14:56:15.524Z,99271.80
2023-05-24T14:58:43.337Z,99268.00
2023-05-24T15:01:11.417Z,99272.00
2023-05-24T15:03:39.310Z,99276.40
2023-05-24T15:06:07.308Z,99280.80
2023-05-24T15:08:35.333Z,99283.60
2023-05-24T15:11:03.069Z,99274.20
2023-05-24T15:13:31.166Z,99278.00
2023-05-24T15:16:00.529Z,99276.40
2023-05-24T15:18:31.764Z,99281.80
2023-05-24T15:20:59.619Z,99277.60
2023-05-24T15:23:27.498Z,99278.60
2023-05-24T15:25:55.597Z,99278.00
2023-05-24T15:28:26.063Z,99270.00
2023-05-24T15:30:54.716Z,99267.20
2023-05-24T15:33:22.660Z,99267.20
2023-05-24T15:35:50.563Z,99268.40
2023-05-24T15:38:18.737Z,99274.60
2023-05-24T15:40:47.206Z,99276.20
2023-05-24T15:43:18.874Z,99272.40
2023-05-24T15:45:47.985Z,99276.20
2023-05-24T15:48:15.833Z,99273.20
2023-05-24T15:51:13.875Z,99274.60
2023-05-24T15:53:32.521Z,99281.80
2023-05-24T15:56:00.284Z,99272.80
2023-05-24T15:58:28.065Z,99270.60
2023-05-24T16:00:55.868Z,99271.20
2023-05-24T16:03:23.826Z,99276.80
2023-05-24T16:05:51.740Z,99279.00
2023-05-24T16:08:19.733Z,99285.20
2023-05-24T16:10:49.163Z,99288.60
2023-05-24T16:13:17.083Z,99291.00
2023-05-24T16:15:51.047Z,99292.60
2023-05-24T16:18:23.702Z,99293.80
2023-05-24T16:20:51.979Z,99297.60
2023-05-24T16:23:23.059Z,99303.60
2023-05-24T16:25:51.600Z,99308.20
2023-05-24T16:28:24.436Z,99306.80
2023-05-24T16:30:55.812Z,99311.20
2023-05-24T16:33:25.349Z,99304.80
2023-05-24T16:35:56.696Z,99302.60
2023-05-24T16:38:26.101Z,99303.60
2023-05-24T16:40:54.496Z,99304.20
2023-05-24T16:43:22.397Z,99313.80
2023-05-24T16:45:51.494Z,99315.20
2023-05-24T16:48:21.759Z,99320.00
2023-05-24T16:50:51.622Z,99323.80
2023-05-24T16:53:23.030Z,99324.20
2023-05-24T16:55:53.856Z,99324.40
2023-05-24T16:58:30.981Z,99324.60
2023-05-24T17:00:58.964Z,99332.60
2023-05-24T17:03:29.001Z,99334.60
2023-05-24T17:06:04.090Z,99335.60
2023-05-24T17:08:36.008Z,99331.60
2023-05-24T17:11:06.059Z,99335.80
2023-05-24T17:13:34.382Z,99339.40
2023-05-24T17:16:04.208Z,99342.40
2023-05-24T17:18:32.368Z,99345.40
2023-05-24T17:21:04.375Z,99347.80
2023-05-24T17:23:34.862Z,99348.00
2023-05-24T17:26:04.341Z,99348.80
2023-05-24T17:28:35.128Z,99349.20
2023-05-24T17:31:04.236Z,99347.40
2023-05-24T17:33:33.232Z,99354.60
2023-05-24T17:36:06.129Z,99361.20
2023-05-24T17:38:34.281Z,99360.20
2023-05-24T17:41:02.150Z,99368.40
2023-05-24T17:43:32.784Z,99376.80
2023-05-24T17:46:04.179Z,99374.80
2023-05-24T17:48:37.540Z,99376.20
2023-05-24T17:51:08.664Z,99378.00
2023-05-24T17:53:43.207Z,99382.40
2023-05-24T17:56:11.458Z,99383.00
2023-05-24T17:58:40.080Z,99382.80
2023-05-24T18:01:11.882Z,99385.20
2023-05-24T18:03:40.801Z,99384.00
2023-05-24T18:06:10.462Z,99385.00
2023-05-24T18:08:42.495Z,99389.60
2023-05-24T18:11:13.208Z,99384.40
2023-05-24T18:13:43.929Z,99387.80
2023-05-24T18:16:13.286Z,99389.00
2023-05-24T18:18:43.888Z,99391.20
2023-05-24T18:21:13.163Z,99393.20
2023-05-24T18:23:42.600Z,99393.20
2023-05-24T18:26:12.214Z,99392.60
2023-05-24T18:28:42.339Z,99390.60
2023-05-24T18:31:10.807Z,99396.20
2023-05-24T18:33:39.610Z,99395.00
2023-05-24T18:36:08.707Z,99389.20
2023-05-24T18:38:37.776Z,99400.80
2023-05-24T18:41:09.673Z,99401.40
2023-05-24T18:43:40.233Z,99410.20
2023-05-24T18:46:13.119Z,99416.60
2023-05-24T18:48:44.546Z,99414.80
2023-05-24T18:51:15.196Z,99421.00
2023-05-24T18:53:43.347Z,99425.60
2023-05-24T18:56:11.416Z,99425.80
2023-05-24T18:58:40.048Z,99435.80
2023-05-24T19:01:10.111Z,99441.80
2023-05-24T19:03:39.449Z,99443.40
2023-05-24T19:06:08.227Z,99446.80
2023-05-24T19:08:36.144Z,99445.80
2023-05-24T19:11:04.278Z,99452.00
2023-05-24T19:13:33.793Z,99452.80
2023-05-24T19:16:01.588Z,99455.80
2023-05-24T19:18:30.410Z,99449.00
2023-05-24T19:20:58.745Z,99462.00
2023-05-24T19:23:26.516Z,99463.60
2023-05-24T19:25:54.641Z,99463.40
2023-05-24T19:28:24.212Z,99462.80
2023-05-24T19:30:52.215Z,99461.00
2023-05-24T19:33:20.609Z,99462.40
2023-05-24T19:35:49.058Z,99467.80
2023-05-24T19:38:17.983Z,99469.20
2023-05-24T19:40:47.204Z,99464.40
2023-05-24T19:43:14.971Z,99463.00
2023-05-24T19:45:43.587Z,99463.00
2023-05-24T19:48:12.624Z,99467.80
2023-05-24T19:50:40.757Z,99469.80
2023-05-24T19:53:09.039Z,99465.00
2023-05-24T19:55:38.087Z,99462.20
2023-05-24T19:58:08.675Z,99465.80
2023-05-24T20:00:36.930Z,99462.40
2023-05-24T20:03:05.153Z,99464.20
2023-05-24T20:05:33.399Z,99464.60
2023-05-24T20:08:01.571Z,99464.40
2023-05-24T20:10:31.851Z,99464.00
2023-05-24T20:12:59.648Z,99464.60
2023-05-24T20:15:28.368Z,99464.80
2023-05-24T20:17:58.104Z,99464.40
2023-05-24T20:20:26.053Z,99464.60
2023-05-24T20:22:54.280Z,99461.20
2023-05-24T20:25:24.723Z,99461.00
2023-05-24T20:27:53.626Z,99460.00
2023-05-24T20:30:21.891Z,99461.00
2023-05-24T20:32:49.653Z,99454.60
2023-05-24T20:35:19.083Z,99455.00
2023-05-24T20:37:47.172Z,99453.60
2023-05-24T20:40:24.964Z,99458.20
2023-05-24T20:42:53.411Z,99456.80
2023-05-24T20:45:21.529Z,99461.40
2023-05-24T20:47:49.326Z,99461.80
2023-05-24T20:50:18.109Z,99462.80
2023-05-24T20:52:46.144Z,99461.00
2023-05-24T20:55:16.337Z,99467.00
2023-05-24T20:57:44.904Z,99469.20
2023-05-24T21:00:13.303Z,99472.40
2023-05-24T21:02:41.373Z,99474.00
2023-05-24T21:05:09.640Z,99471.00
2023-05-24T21:07:37.393Z,99474.20
2023-05-24T21:10:05.777Z,99477.00
2023-05-24T21:12:33.436Z,99473.40
2023-05-24T21:15:01.080Z,99475.20
2023-05-24T21:17:29.121Z,99476.60
2023-05-24T21:19:56.872Z,99474.00
2023-05-24T21:22:24.597Z,99478.20
2023-05-24T21:24:52.346Z,99474.40
2023-05-24T21:27:20.171Z,99477.60
2023-05-24T21:29:48.685Z,99479.60
2023-05-24T21:32:16.328Z,99485.80
2023-05-24T21:34:44.071Z,99488.40
2023-05-24T21:37:11.897Z,99481.20
2023-05-24T21:39:39.600Z,99487.20
2023-05-24T21:42:07.428Z,99482.80
2023-05-24T21:44:35.324Z,99483.40
2023-05-24T21:47:03.232Z,99481.00
2023-05-24T21:49:30.906Z,99482.20
2023-05-24T21:51:58.669Z,99487.00
2023-05-24T21:54:26.390Z,99489.40
2023-05-24T21:56:54.135Z,99494.00
2023-05-24T21:59:21.820Z,99495.20
2023-05-24T22:01:49.625Z,99493.00
2023-05-24T22:04:17.370Z,99495.20
2023-05-24T22:06:46.162Z,99502.20
2023-05-24T22:09:13.944Z,99506.80
2023-05-24T22:11:41.642Z,99502.20
2023-05-24T22:14:10.491Z,99504.40
2023-05-24T22:16:38.242Z,99502.40
2023-05-24T22:19:14.852Z,99504.00
2023-05-24T22:21:45.929Z,99502.40
2023-05-24T22:24:13.871Z,99500.20
2023-05-24T22:26:46.934Z,99507.40
2023-05-24T22:29:14.966Z,99514.00
2023-05-24T22:31:42.785Z,99518.60
2023-05-24T22:34:11.792Z,99522.20
2023-05-24T22:36:39.730Z,99524.40
2023-05-24T22:39:07.956Z,99519.00
2023-05-24T22:41:35.891Z,99528.60
2023-05-24T22:44:03.566Z,99526.20
2023-05-24T22:46:31.324Z,99528.20
2023-05-24T22:49:02.980Z,99533.00
2023-05-24T22:51:30.889Z,99536.00
2023-05-24T22:53:58.614Z,99535.40
2023-05-24T22:56:27.062Z,99528.60
2023-05-24T22:58:54.687Z,99526.80
2023-05-24T23:01:22.372Z,99533.60
2023-05-24T23:03:50.164Z,99534.80
2023-05-24T23:06:17.917Z,99537.60
2023-05-24T23:08:48.086Z,99540.60
2023-05-24T23:11:17.255Z,99539.00
2023-05-24T23:13:45.338Z,99535.20
2023-05-24T23:16:18.041Z,99533.40
2023-05-24T23:18:45.802Z,99537.20
2023-05-24T23:21:16.949Z,99535.60
2023-05-24T23:23:46.253Z,99532.20
2023-05-24T23:26:14.135Z,99530.20
2023-05-24T23:28:41.972Z,99529.80
2023-05-24T23:31:09.728Z,99529.80
2023-05-24T23:33:37.459Z,99540.40
2023-05-24T23:36:05.818Z,99534.80
2023-05-24T23:38:33.584Z,99533.00
2023-05-24T23:41:01.505Z,99531.20
2023-05-24T23:43:29.152Z,99532.20
2023-05-24T23:45:56.834Z,99528.20
2023-05-24T23:48:24.568Z,99526.40
2023-05-24T23:50:54.690Z,99526.20
2023-05-24T23:53:22.920Z,99532.60
2023-05-24T23:55:50.837Z,99533.80
2023-05-24T23:58:18.503Z,99526.60
